sensor_id;sensor_type;location;lat;lon;timestamp;P1;durP1;ratioP1;P2;durP2;ratioP2
47053;SDS011;32811;52.382;5.270;2022-08-03T00:00:20;8.23;;;1.02;;
47053;SDS011;32811;52.382;5.270;2022-08-03T00:02:49;7.68;;;0.70;;
47053;SDS011;32811;52.382;5.270;2022-08-03T00:05:15;7.53;;;0.85;;
47053;SDS011;32811;52.382;5.270;2022-08-03T00:07:42;2.90;;;0.70;;
47053;SDS011;32811;52.382;5.270;2022-08-03T00:10:09;6.53;;;0.70;;
47053;SDS011;32811;52.382;5.270;2022-08-03T00:12:37;4.38;;;0.70;;
47053;SDS011;32811;52.382;5.270;2022-08-03T00:15:04;3.92;;;0.60;;
47053;SDS011;32811;52.382;5.270;2022-08-03T00:17:40;5.13;;;0.82;;
47053;SDS011;32811;52.382;5.270;2022-08-03T00:20:19;5.07;;;0.55;;
47053;SDS011;32811;52.382;5.270;2022-08-03T00:22:46;6.32;;;0.65;;
47053;SDS011;32811;52.382;5.270;2022-08-03T00:25:13;4.32;;;0.60;;
47053;SDS011;32811;52.382;5.270;2022-08-03T00:27:40;3.60;;;1.27;;
47053;SDS011;32811;52.382;5.270;2022-08-03T00:30:06;4.45;;;0.80;;
47053;SDS011;32811;52.382;5.270;2022-08-03T00:32:33;2.55;;;1.17;;
47053;SDS011;32811;52.382;5.270;2022-08-03T00:35:00;2.22;;;0.50;;
47053;SDS011;32811;52.382;5.270;2022-08-03T00:37:33;3.90;;;0.60;;
47053;SDS011;32811;52.382;5.270;2022-08-03T00:40:07;4.15;;;1.35;;
47053;SDS011;32811;52.382;5.270;2022-08-03T00:42:44;3.92;;;0.85;;
47053;SDS011;32811;52.382;5.270;2022-08-03T00:45:26;3.67;;;0.98;;
47053;SDS011;32811;52.382;5.270;2022-08-03T00:47:58;3.38;;;0.68;;
47053;SDS011;32811;52.382;5.270;2022-08-03T00:50:26;2.47;;;0.82;;
47053;SDS011;32811;52.382;5.270;2022-08-03T00:52:56;6.63;;;1.23;;
47053;SDS011;32811;52.382;5.270;2022-08-03T00:55:24;9.02;;;0.70;;
47053;SDS011;32811;52.382;5.270;2022-08-03T00:57:51;4.53;;;1.15;;
47053;SDS011;32811;52.382;5.270;2022-08-03T01:00:20;5.40;;;0.65;;
47053;SDS011;32811;52.382;5.270;2022-08-03T01:02:49;2.13;;;0.50;;
47053;SDS011;32811;52.382;5.270;2022-08-03T01:05:16;4.75;;;0.75;;
47053;SDS011;32811;52.382;5.270;2022-08-03T01:10:23;2.10;;;1.10;;
47053;SDS011;32811;52.382;5.270;2022-08-03T01:27:17;5.05;;;1.30;;
47053;SDS011;32811;52.382;5.270;2022-08-03T01:29:58;4.72;;;1.05;;
47053;SDS011;32811;52.382;5.270;2022-08-03T01:32:33;2.67;;;0.60;;
47053;SDS011;32811;52.382;5.270;2022-08-03T01:35:38;2.88;;;0.68;;
47053;SDS011;32811;52.382;5.270;2022-08-03T01:38:13;2.65;;;0.85;;
47053;SDS011;32811;52.382;5.270;2022-08-03T01:40:43;3.17;;;0.68;;
47053;SDS011;32811;52.382;5.270;2022-08-03T01:43:13;2.85;;;1.05;;
47053;SDS011;32811;52.382;5.270;2022-08-03T01:46:03;1.95;;;0.90;;
47053;SDS011;32811;52.382;5.270;2022-08-03T01:48:32;6.85;;;1.23;;
47053;SDS011;32811;52.382;5.270;2022-08-03T01:51:01;4.35;;;1.00;;
47053;SDS011;32811;52.382;5.270;2022-08-03T01:53:28;3.97;;;0.75;;
47053;SDS011;32811;52.382;5.270;2022-08-03T01:55:59;4.47;;;1.35;;
47053;SDS011;32811;52.382;5.270;2022-08-03T01:58:27;4.30;;;0.85;;
47053;SDS011;32811;52.382;5.270;2022-08-03T02:00:55;8.25;;;1.92;;
47053;SDS011;32811;52.382;5.270;2022-08-03T02:03:27;4.25;;;0.68;;
47053;SDS011;32811;52.382;5.270;2022-08-03T02:05:55;4.13;;;1.08;;
47053;SDS011;32811;52.382;5.270;2022-08-03T02:08:43;4.90;;;0.93;;
47053;SDS011;32811;52.382;5.270;2022-08-03T02:11:12;4.88;;;0.82;;
47053;SDS011;32811;52.382;5.270;2022-08-03T02:13:39;6.75;;;1.10;;
47053;SDS011;32811;52.382;5.270;2022-08-03T02:16:08;8.77;;;1.27;;
47053;SDS011;32811;52.382;5.270;2022-08-03T02:18:37;5.45;;;0.90;;
47053;SDS011;32811;52.382;5.270;2022-08-03T02:21:05;4.50;;;0.88;;
47053;SDS011;32811;52.382;5.270;2022-08-03T02:23:36;7.97;;;1.70;;
47053;SDS011;32811;52.382;5.270;2022-08-03T02:26:04;6.22;;;0.70;;
47053;SDS011;32811;52.382;5.270;2022-08-03T02:28:35;3.10;;;0.90;;
47053;SDS011;32811;52.382;5.270;2022-08-03T02:31:06;7.05;;;0.90;;
47053;SDS011;32811;52.382;5.270;2022-08-03T02:33:40;4.28;;;1.42;;
47053;SDS011;32811;52.382;5.270;2022-08-03T02:36:09;4.00;;;1.35;;
47053;SDS011;32811;52.382;5.270;2022-08-03T02:38:40;3.60;;;0.95;;
47053;SDS011;32811;52.382;5.270;2022-08-03T02:41:15;6.63;;;1.10;;
47053;SDS011;32811;52.382;5.270;2022-08-03T02:43:47;7.15;;;1.40;;
47053;SDS011;32811;52.382;5.270;2022-08-03T02:46:32;4.57;;;1.00;;
47053;SDS011;32811;52.382;5.270;2022-08-03T02:49:03;5.22;;;1.23;;
47053;SDS011;32811;52.382;5.270;2022-08-03T02:51:51;7.05;;;1.73;;
47053;SDS011;32811;52.382;5.270;2022-08-03T02:54:20;6.28;;;1.80;;
47053;SDS011;32811;52.382;5.270;2022-08-03T02:56:48;4.35;;;0.90;;
47053;SDS011;32811;52.382;5.270;2022-08-03T02:59:17;6.80;;;0.85;;
47053;SDS011;32811;52.382;5.270;2022-08-03T03:01:45;6.20;;;0.98;;
47053;SDS011;32811;52.382;5.270;2022-08-03T03:04:12;7.72;;;1.52;;
47053;SDS011;32811;52.382;5.270;2022-08-03T03:06:41;6.72;;;1.00;;
47053;SDS011;32811;52.382;5.270;2022-08-03T03:09:12;4.90;;;1.13;;
47053;SDS011;32811;52.382;5.270;2022-08-03T03:11:39;14.02;;;2.55;;
47053;SDS011;32811;52.382;5.270;2022-08-03T03:14:08;6.72;;;1.05;;
47053;SDS011;32811;52.382;5.270;2022-08-03T03:16:37;8.02;;;1.50;;
47053;SDS011;32811;52.382;5.270;2022-08-03T03:19:05;4.15;;;1.10;;
47053;SDS011;32811;52.382;5.270;2022-08-03T03:21:33;6.03;;;0.80;;
47053;SDS011;32811;52.382;5.270;2022-08-03T03:24:02;8.88;;;1.20;;
47053;SDS011;32811;52.382;5.270;2022-08-03T03:26:30;11.95;;;1.58;;
47053;SDS011;32811;52.382;5.270;2022-08-03T03:28:58;11.20;;;0.90;;
47053;SDS011;32811;52.382;5.270;2022-08-03T03:31:26;5.53;;;1.02;;
47053;SDS011;32811;52.382;5.270;2022-08-03T03:33:53;3.13;;;1.08;;
47053;SDS011;32811;52.382;5.270;2022-08-03T03:36:22;4.40;;;1.00;;
47053;SDS011;32811;52.382;5.270;2022-08-03T03:38:49;5.68;;;1.33;;
47053;SDS011;32811;52.382;5.270;2022-08-03T03:41:18;11.05;;;1.10;;
47053;SDS011;32811;52.382;5.270;2022-08-03T03:43:46;7.75;;;1.52;;
47053;SDS011;32811;52.382;5.270;2022-08-03T03:46:16;7.10;;;1.30;;
47053;SDS011;32811;52.382;5.270;2022-08-03T03:48:43;6.45;;;1.80;;
47053;SDS011;32811;52.382;5.270;2022-08-03T03:51:10;7.20;;;1.40;;
47053;SDS011;32811;52.382;5.270;2022-08-03T03:53:36;9.48;;;1.20;;
47053;SDS011;32811;52.382;5.270;2022-08-03T03:56:03;11.43;;;1.90;;
47053;SDS011;32811;52.382;5.270;2022-08-03T03:58:30;6.25;;;1.67;;
47053;SDS011;32811;52.382;5.270;2022-08-03T04:00:58;7.88;;;1.40;;
47053;SDS011;32811;52.382;5.270;2022-08-03T04:03:25;11.15;;;2.10;;
47053;SDS011;32811;52.382;5.270;2022-08-03T04:05:52;7.40;;;1.10;;
47053;SDS011;32811;52.382;5.270;2022-08-03T04:11:25;7.88;;;1.88;;
47053;SDS011;32811;52.382;5.270;2022-08-03T04:14:07;6.38;;;1.58;;
47053;SDS011;32811;52.382;5.270;2022-08-03T04:16:37;3.85;;;1.13;;
47053;SDS011;32811;52.382;5.270;2022-08-03T04:19:10;7.28;;;1.48;;
47053;SDS011;32811;52.382;5.270;2022-08-03T04:21:49;4.35;;;1.17;;
47053;SDS011;32811;52.382;5.270;2022-08-03T04:24:22;9.73;;;1.77;;
47053;SDS011;32811;52.382;5.270;2022-08-03T04:26:52;11.32;;;1.50;;
47053;SDS011;32811;52.382;5.270;2022-08-03T04:29:20;8.45;;;1.58;;
47053;SDS011;32811;52.382;5.270;2022-08-03T04:31:48;10.43;;;1.70;;
47053;SDS011;32811;52.382;5.270;2022-08-03T04:34:18;9.23;;;1.50;;
47053;SDS011;32811;52.382;5.270;2022-08-03T04:36:46;6.20;;;1.23;;
47053;SDS011;32811;52.382;5.270;2022-08-03T04:39:17;7.25;;;1.50;;
47053;SDS011;32811;52.382;5.270;2022-08-03T04:41:48;5.75;;;1.23;;
47053;SDS011;32811;52.382;5.270;2022-08-03T04:44:37;7.60;;;1.23;;
47053;SDS011;32811;52.382;5.270;2022-08-03T04:47:05;13.90;;;2.25;;
47053;SDS011;32811;52.382;5.270;2022-08-03T04:49:36;8.15;;;1.83;;
47053;SDS011;32811;52.382;5.270;2022-08-03T04:52:04;6.93;;;2.28;;
47053;SDS011;32811;52.382;5.270;2022-08-03T04:54:43;10.82;;;1.65;;
47053;SDS011;32811;52.382;5.270;2022-08-03T04:57:15;16.58;;;1.90;;
47053;SDS011;32811;52.382;5.270;2022-08-03T04:59:48;5.22;;;1.73;;
47053;SDS011;32811;52.382;5.270;2022-08-03T05:02:28;9.40;;;2.20;;
47053;SDS011;32811;52.382;5.270;2022-08-03T05:04:56;9.32;;;1.90;;
47053;SDS011;32811;52.382;5.270;2022-08-03T05:07:22;8.95;;;1.55;;
47053;SDS011;32811;52.382;5.270;2022-08-03T05:09:50;10.85;;;1.60;;
47053;SDS011;32811;52.382;5.270;2022-08-03T05:12:28;8.38;;;1.85;;
47053;SDS011;32811;52.382;5.270;2022-08-03T05:14:58;15.75;;;2.72;;
47053;SDS011;32811;52.382;5.270;2022-08-03T05:17:25;7.55;;;2.15;;
47053;SDS011;32811;52.382;5.270;2022-08-03T05:19:52;7.47;;;1.25;;
47053;SDS011;32811;52.382;5.270;2022-08-03T05:22:19;6.72;;;1.35;;
47053;SDS011;32811;52.382;5.270;2022-08-03T05:24:46;5.57;;;1.50;;
47053;SDS011;32811;52.382;5.270;2022-08-03T05:27:13;10.32;;;1.88;;
47053;SDS011;32811;52.382;5.270;2022-08-03T05:29:44;7.45;;;1.70;;
47053;SDS011;32811;52.382;5.270;2022-08-03T05:32:12;12.73;;;1.80;;
47053;SDS011;32811;52.382;5.270;2022-08-03T05:34:38;8.27;;;1.77;;
47053;SDS011;32811;52.382;5.270;2022-08-03T05:37:05;10.02;;;1.55;;
47053;SDS011;32811;52.382;5.270;2022-08-03T05:39:33;11.00;;;2.25;;
47053;SDS011;32811;52.382;5.270;2022-08-03T05:42:00;11.05;;;2.40;;
47053;SDS011;32811;52.382;5.270;2022-08-03T05:44:27;7.32;;;2.35;;
47053;SDS011;32811;52.382;5.270;2022-08-03T05:46:55;9.40;;;2.75;;
47053;SDS011;32811;52.382;5.270;2022-08-03T05:49:22;7.15;;;2.30;;
47053;SDS011;32811;52.382;5.270;2022-08-03T05:51:49;8.98;;;3.20;;
47053;SDS011;32811;52.382;5.270;2022-08-03T05:54:34;10.27;;;2.50;;
47053;SDS011;32811;52.382;5.270;2022-08-03T05:57:20;15.07;;;3.40;;
47053;SDS011;32811;52.382;5.270;2022-08-03T05:59:47;13.15;;;3.90;;
47053;SDS011;32811;52.382;5.270;2022-08-03T06:02:24;15.10;;;5.68;;
47053;SDS011;32811;52.382;5.270;2022-08-03T06:04:53;14.15;;;4.43;;
47053;SDS011;32811;52.382;5.270;2022-08-03T06:07:20;11.65;;;4.05;;
47053;SDS011;32811;52.382;5.270;2022-08-03T06:09:47;11.20;;;4.50;;
47053;SDS011;32811;52.382;5.270;2022-08-03T06:12:33;15.20;;;4.10;;
47053;SDS011;32811;52.382;5.270;2022-08-03T06:15:06;13.50;;;3.88;;
47053;SDS011;32811;52.382;5.270;2022-08-03T06:17:43;13.98;;;3.75;;
47053;SDS011;32811;52.382;5.270;2022-08-03T06:20:14;17.30;;;3.75;;
47053;SDS011;32811;52.382;5.270;2022-08-03T06:22:43;12.50;;;4.22;;
47053;SDS011;32811;52.382;5.270;2022-08-03T06:25:25;12.57;;;4.43;;
47053;SDS011;32811;52.382;5.270;2022-08-03T06:27:52;13.50;;;4.07;;
47053;SDS011;32811;52.382;5.270;2022-08-03T06:30:18;20.30;;;3.83;;
47053;SDS011;32811;52.382;5.270;2022-08-03T06:32:46;12.80;;;3.67;;
47053;SDS011;32811;52.382;5.270;2022-08-03T06:35:17;9.52;;;3.00;;
47053;SDS011;32811;52.382;5.270;2022-08-03T06:37:44;16.63;;;3.25;;
47053;SDS011;32811;52.382;5.270;2022-08-03T06:40:14;15.23;;;3.33;;
47053;SDS011;32811;52.382;5.270;2022-08-03T06:42:49;8.38;;;2.92;;
47053;SDS011;32811;52.382;5.270;2022-08-03T06:45:16;12.57;;;3.45;;
47053;SDS011;32811;52.382;5.270;2022-08-03T06:47:43;16.10;;;4.88;;
47053;SDS011;32811;52.382;5.270;2022-08-03T06:50:09;11.82;;;4.80;;
47053;SDS011;32811;52.382;5.270;2022-08-03T06:52:43;15.18;;;4.28;;
47053;SDS011;32811;52.382;5.270;2022-08-03T06:55:09;19.17;;;5.00;;
47053;SDS011;32811;52.382;5.270;2022-08-03T06:57:36;12.18;;;4.70;;
47053;SDS011;32811;52.382;5.270;2022-08-03T07:00:03;23.17;;;5.07;;
47053;SDS011;32811;52.382;5.270;2022-08-03T07:02:37;21.00;;;4.60;;
47053;SDS011;32811;52.382;5.270;2022-08-03T07:05:05;12.73;;;4.47;;
47053;SDS011;32811;52.382;5.270;2022-08-03T07:07:33;13.85;;;5.32;;
47053;SDS011;32811;52.382;5.270;2022-08-03T07:09:59;12.15;;;3.70;;
47053;SDS011;32811;52.382;5.270;2022-08-03T07:12:28;14.15;;;4.38;;
47053;SDS011;32811;52.382;5.270;2022-08-03T07:14:55;14.10;;;5.10;;
47053;SDS011;32811;52.382;5.270;2022-08-03T07:17:29;20.80;;;5.13;;
47053;SDS011;32811;52.382;5.270;2022-08-03T07:19:56;18.02;;;5.15;;
47053;SDS011;32811;52.382;5.270;2022-08-03T07:22:24;18.58;;;5.15;;
47053;SDS011;32811;52.382;5.270;2022-08-03T07:24:50;13.15;;;4.88;;
47053;SDS011;32811;52.382;5.270;2022-08-03T07:27:17;18.65;;;4.85;;
47053;SDS011;32811;52.382;5.270;2022-08-03T07:29:44;17.52;;;4.75;;
47053;SDS011;32811;52.382;5.270;2022-08-03T07:32:10;13.93;;;4.22;;
47053;SDS011;32811;52.382;5.270;2022-08-03T07:34:37;12.90;;;4.30;;
47053;SDS011;32811;52.382;5.270;2022-08-03T07:37:03;21.67;;;4.90;;
47053;SDS011;32811;52.382;5.270;2022-08-03T07:39:30;8.48;;;5.00;;
47053;SDS011;32811;52.382;5.270;2022-08-03T07:41:56;8.82;;;3.92;;
47053;SDS011;32811;52.382;5.270;2022-08-03T07:44:23;11.32;;;3.90;;
47053;SDS011;32811;52.382;5.270;2022-08-03T07:46:49;13.27;;;4.15;;
47053;SDS011;32811;52.382;5.270;2022-08-03T07:49:17;15.50;;;5.10;;
47053;SDS011;32811;52.382;5.270;2022-08-03T07:51:44;15.00;;;4.10;;
47053;SDS011;32811;52.382;5.270;2022-08-03T07:54:10;6.55;;;3.55;;
47053;SDS011;32811;52.382;5.270;2022-08-03T07:56:37;11.95;;;3.60;;
47053;SDS011;32811;52.382;5.270;2022-08-03T07:59:04;11.25;;;3.10;;
47053;SDS011;32811;52.382;5.270;2022-08-03T08:01:30;12.13;;;3.22;;
47053;SDS011;32811;52.382;5.270;2022-08-03T08:04:01;13.48;;;4.15;;
47053;SDS011;32811;52.382;5.270;2022-08-03T08:06:27;11.52;;;3.03;;
47053;SDS011;32811;52.382;5.270;2022-08-03T08:08:54;10.07;;;3.45;;
47053;SDS011;32811;52.382;5.270;2022-08-03T08:11:24;14.35;;;2.95;;
47053;SDS011;32811;52.382;5.270;2022-08-03T08:13:51;10.25;;;3.03;;
47053;SDS011;32811;52.382;5.270;2022-08-03T08:16:17;15.43;;;3.08;;
47053;SDS011;32811;52.382;5.270;2022-08-03T08:18:44;16.15;;;3.83;;
47053;SDS011;32811;52.382;5.270;2022-08-03T08:21:10;14.63;;;3.53;;
47053;SDS011;32811;52.382;5.270;2022-08-03T08:23:37;10.80;;;3.45;;
47053;SDS011;32811;52.382;5.270;2022-08-03T08:26:09;13.80;;;3.53;;
47053;SDS011;32811;52.382;5.270;2022-08-03T08:28:36;15.77;;;3.75;;
47053;SDS011;32811;52.382;5.270;2022-08-03T08:31:03;12.00;;;3.25;;
47053;SDS011;32811;52.382;5.270;2022-08-03T08:33:30;14.77;;;3.95;;
47053;SDS011;32811;52.382;5.270;2022-08-03T08:36:17;12.90;;;4.00;;
47053;SDS011;32811;52.382;5.270;2022-08-03T08:38:44;10.90;;;3.20;;
47053;SDS011;32811;52.382;5.270;2022-08-03T08:41:11;9.52;;;3.30;;
47053;SDS011;32811;52.382;5.270;2022-08-03T08:43:39;13.65;;;4.50;;
47053;SDS011;32811;52.382;5.270;2022-08-03T08:46:12;14.77;;;3.35;;
47053;SDS011;32811;52.382;5.270;2022-08-03T08:48:49;19.75;;;3.67;;
47053;SDS011;32811;52.382;5.270;2022-08-03T08:51:18;17.55;;;4.40;;
47053;SDS011;32811;52.382;5.270;2022-08-03T08:53:47;15.63;;;3.85;;
47053;SDS011;32811;52.382;5.270;2022-08-03T08:56:16;9.40;;;3.47;;
47053;SDS011;32811;52.382;5.270;2022-08-03T08:58:46;13.27;;;4.10;;
47053;SDS011;32811;52.382;5.270;2022-08-03T09:01:17;20.77;;;4.38;;
47053;SDS011;32811;52.382;5.270;2022-08-03T09:03:45;11.95;;;3.47;;
47053;SDS011;32811;52.382;5.270;2022-08-03T09:06:12;16.30;;;3.55;;
47053;SDS011;32811;52.382;5.270;2022-08-03T09:08:40;11.25;;;2.75;;
47053;SDS011;32811;52.382;5.270;2022-08-03T09:11:07;12.45;;;3.88;;
47053;SDS011;32811;52.382;5.270;2022-08-03T09:13:37;20.05;;;3.50;;
47053;SDS011;32811;52.382;5.270;2022-08-03T09:16:14;10.80;;;4.00;;
47053;SDS011;32811;52.382;5.270;2022-08-03T09:18:43;13.40;;;2.88;;
47053;SDS011;32811;52.382;5.270;2022-08-03T09:21:32;10.05;;;3.28;;
47053;SDS011;32811;52.382;5.270;2022-08-03T09:24:00;12.45;;;3.17;;
47053;SDS011;32811;52.382;5.270;2022-08-03T09:26:32;12.73;;;3.97;;
47053;SDS011;32811;52.382;5.270;2022-08-03T09:29:09;12.23;;;2.67;;
47053;SDS011;32811;52.382;5.270;2022-08-03T09:34:12;15.40;;;2.67;;
47053;SDS011;32811;52.382;5.270;2022-08-03T09:36:44;13.52;;;3.08;;
47053;SDS011;32811;52.382;5.270;2022-08-03T09:42:06;13.77;;;3.88;;
47053;SDS011;32811;52.382;5.270;2022-08-03T09:47:10;17.65;;;3.63;;
47053;SDS011;32811;52.382;5.270;2022-08-03T09:49:39;16.90;;;4.32;;
47053;SDS011;32811;52.382;5.270;2022-08-03T09:52:14;17.88;;;3.83;;
47053;SDS011;32811;52.382;5.270;2022-08-03T09:55:08;12.68;;;3.67;;
47053;SDS011;32811;52.382;5.270;2022-08-03T09:58:05;11.93;;;4.18;;
47053;SDS011;32811;52.382;5.270;2022-08-03T10:00:45;10.55;;;2.92;;
47053;SDS011;32811;52.382;5.270;2022-08-03T10:03:19;21.48;;;3.47;;
47053;SDS011;32811;52.382;5.270;2022-08-03T10:05:46;10.98;;;3.17;;
47053;SDS011;32811;52.382;5.270;2022-08-03T10:08:17;12.48;;;4.30;;
47053;SDS011;32811;52.382;5.270;2022-08-03T10:10:45;11.00;;;3.63;;
47053;SDS011;32811;52.382;5.270;2022-08-03T10:13:15;13.45;;;3.90;;
47053;SDS011;32811;52.382;5.270;2022-08-03T10:15:44;9.40;;;3.22;;
47053;SDS011;32811;52.382;5.270;2022-08-03T10:18:31;15.88;;;3.97;;
47053;SDS011;32811;52.382;5.270;2022-08-03T10:20:58;14.32;;;3.45;;
47053;SDS011;32811;52.382;5.270;2022-08-03T10:23:32;20.15;;;4.05;;
47053;SDS011;32811;52.382;5.270;2022-08-03T10:26:01;10.43;;;4.07;;
47053;SDS011;32811;52.382;5.270;2022-08-03T10:28:33;12.73;;;3.95;;
47053;SDS011;32811;52.382;5.270;2022-08-03T10:31:06;20.85;;;4.65;;
47053;SDS011;32811;52.382;5.270;2022-08-03T10:33:41;9.18;;;3.63;;
47053;SDS011;32811;52.382;5.270;2022-08-03T10:36:18;13.52;;;4.13;;
47053;SDS011;32811;52.382;5.270;2022-08-03T10:38:50;20.83;;;4.68;;
47053;SDS011;32811;52.382;5.270;2022-08-03T10:41:22;15.18;;;4.35;;
47053;SDS011;32811;52.382;5.270;2022-08-03T10:43:55;13.25;;;4.40;;
47053;SDS011;32811;52.382;5.270;2022-08-03T10:46:28;14.70;;;4.28;;
47053;SDS011;32811;52.382;5.270;2022-08-03T10:48:54;11.57;;;4.18;;
47053;SDS011;32811;52.382;5.270;2022-08-03T10:51:22;16.00;;;4.70;;
47053;SDS011;32811;52.382;5.270;2022-08-03T10:53:49;9.98;;;4.45;;
47053;SDS011;32811;52.382;5.270;2022-08-03T11:02:31;15.15;;;4.13;;
47053;SDS011;32811;52.382;5.270;2022-08-03T11:05:51;13.35;;;4.03;;
47053;SDS011;32811;52.382;5.270;2022-08-03T11:08:22;12.55;;;3.38;;
47053;SDS011;32811;52.382;5.270;2022-08-03T11:11:00;15.27;;;5.18;;
47053;SDS011;32811;52.382;5.270;2022-08-03T11:13:29;11.30;;;3.75;;
47053;SDS011;32811;52.382;5.270;2022-08-03T11:15:59;10.95;;;4.28;;
47053;SDS011;32811;52.382;5.270;2022-08-03T11:18:33;14.68;;;3.63;;
47053;SDS011;32811;52.382;5.270;2022-08-03T11:21:00;11.18;;;3.60;;
47053;SDS011;32811;52.382;5.270;2022-08-03T11:23:46;12.50;;;3.15;;
47053;SDS011;32811;52.382;5.270;2022-08-03T11:26:31;12.38;;;3.83;;
47053;SDS011;32811;52.382;5.270;2022-08-03T11:31:54;18.08;;;5.07;;
47053;SDS011;32811;52.382;5.270;2022-08-03T11:34:21;14.50;;;4.72;;
47053;SDS011;32811;52.382;5.270;2022-08-03T11:39:55;11.05;;;4.15;;
47053;SDS011;32811;52.382;5.270;2022-08-03T11:44:49;13.65;;;3.33;;
47053;SDS011;32811;52.382;5.270;2022-08-03T11:47:16;14.75;;;4.57;;
47053;SDS011;32811;52.382;5.270;2022-08-03T11:49:46;10.00;;;2.83;;
47053;SDS011;32811;52.382;5.270;2022-08-03T11:52:13;13.15;;;3.47;;
47053;SDS011;32811;52.382;5.270;2022-08-03T11:54:42;13.88;;;3.20;;
47053;SDS011;32811;52.382;5.270;2022-08-03T11:57:09;8.05;;;2.53;;
47053;SDS011;32811;52.382;5.270;2022-08-03T11:59:36;15.35;;;3.83;;
47053;SDS011;32811;52.382;5.270;2022-08-03T12:02:07;11.05;;;2.85;;
47053;SDS011;32811;52.382;5.270;2022-08-03T12:04:55;15.25;;;4.25;;
47053;SDS011;32811;52.382;5.270;2022-08-03T12:07:24;11.48;;;3.47;;
47053;SDS011;32811;52.382;5.270;2022-08-03T12:10:14;14.75;;;3.55;;
47053;SDS011;32811;52.382;5.270;2022-08-03T12:12:41;10.57;;;3.13;;
47053;SDS011;32811;52.382;5.270;2022-08-03T12:15:12;8.88;;;2.85;;
47053;SDS011;32811;52.382;5.270;2022-08-03T12:17:39;10.27;;;3.03;;
47053;SDS011;32811;52.382;5.270;2022-08-03T12:20:08;14.60;;;2.97;;
47053;SDS011;32811;52.382;5.270;2022-08-03T12:22:36;10.52;;;3.60;;
47053;SDS011;32811;52.382;5.270;2022-08-03T12:25:05;10.43;;;2.90;;
47053;SDS011;32811;52.382;5.270;2022-08-03T12:27:33;15.43;;;2.95;;
47053;SDS011;32811;52.382;5.270;2022-08-03T12:30:00;9.57;;;2.65;;
47053;SDS011;32811;52.382;5.270;2022-08-03T12:32:27;11.85;;;2.83;;
47053;SDS011;32811;52.382;5.270;2022-08-03T12:34:55;6.78;;;2.45;;
47053;SDS011;32811;52.382;5.270;2022-08-03T12:37:26;7.60;;;2.58;;
47053;SDS011;32811;52.382;5.270;2022-08-03T12:39:54;10.55;;;2.90;;
47053;SDS011;32811;52.382;5.270;2022-08-03T12:42:34;10.82;;;2.92;;
47053;SDS011;32811;52.382;5.270;2022-08-03T12:47:51;9.10;;;2.00;;
47053;SDS011;32811;52.382;5.270;2022-08-03T12:50:25;8.45;;;2.42;;
47053;SDS011;32811;52.382;5.270;2022-08-03T12:52:57;6.68;;;2.45;;
47053;SDS011;32811;52.382;5.270;2022-08-03T12:55:25;7.72;;;2.17;;
47053;SDS011;32811;52.382;5.270;2022-08-03T12:58:28;11.68;;;2.60;;
47053;SDS011;32811;52.382;5.270;2022-08-03T13:00:58;8.10;;;2.35;;
47053;SDS011;32811;52.382;5.270;2022-08-03T13:03:26;7.47;;;1.88;;
47053;SDS011;32811;52.382;5.270;2022-08-03T13:06:11;8.85;;;2.17;;
47053;SDS011;32811;52.382;5.270;2022-08-03T13:08:45;7.40;;;2.00;;
47053;SDS011;32811;52.382;5.270;2022-08-03T13:11:25;4.97;;;1.90;;
47053;SDS011;32811;52.382;5.270;2022-08-03T13:14:13;6.60;;;2.13;;
47053;SDS011;32811;52.382;5.270;2022-08-03T13:16:45;6.45;;;2.22;;
47053;SDS011;32811;52.382;5.270;2022-08-03T13:19:12;5.88;;;1.70;;
47053;SDS011;32811;52.382;5.270;2022-08-03T13:21:41;12.93;;;1.73;;
47053;SDS011;32811;52.382;5.270;2022-08-03T13:24:28;7.72;;;1.65;;
47053;SDS011;32811;52.382;5.270;2022-08-03T13:26:55;7.30;;;1.75;;
47053;SDS011;32811;52.382;5.270;2022-08-03T13:29:22;8.20;;;1.60;;
47053;SDS011;32811;52.382;5.270;2022-08-03T13:31:48;7.28;;;1.98;;
47053;SDS011;32811;52.382;5.270;2022-08-03T13:34:16;8.27;;;1.52;;
47053;SDS011;32811;52.382;5.270;2022-08-03T13:36:48;5.93;;;1.67;;
47053;SDS011;32811;52.382;5.270;2022-08-03T13:39:34;7.55;;;1.67;;
47053;SDS011;32811;52.382;5.270;2022-08-03T13:42:21;5.72;;;1.60;;
47053;SDS011;32811;52.382;5.270;2022-08-03T13:44:47;10.00;;;2.03;;
47053;SDS011;32811;52.382;5.270;2022-08-03T13:47:14;7.45;;;0.90;;
47053;SDS011;32811;52.382;5.270;2022-08-03T13:49:41;6.90;;;1.27;;
47053;SDS011;32811;52.382;5.270;2022-08-03T13:52:22;9.50;;;1.50;;
47053;SDS011;32811;52.382;5.270;2022-08-03T13:54:48;5.93;;;1.63;;
47053;SDS011;32811;52.382;5.270;2022-08-03T13:57:15;5.72;;;1.10;;
47053;SDS011;32811;52.382;5.270;2022-08-03T14:00:02;7.07;;;0.82;;
47053;SDS011;32811;52.382;5.270;2022-08-03T14:02:29;3.90;;;1.13;;
47053;SDS011;32811;52.382;5.270;2022-08-03T14:04:56;3.42;;;0.80;;
47053;SDS011;32811;52.382;5.270;2022-08-03T14:07:23;4.82;;;1.20;;
47053;SDS011;32811;52.382;5.270;2022-08-03T14:09:49;5.47;;;1.05;;
47053;SDS011;32811;52.382;5.270;2022-08-03T14:12:16;6.28;;;0.98;;
47053;SDS011;32811;52.382;5.270;2022-08-03T14:14:42;7.68;;;1.45;;
47053;SDS011;32811;52.382;5.270;2022-08-03T14:17:09;10.70;;;1.90;;
47053;SDS011;32811;52.382;5.270;2022-08-03T14:19:37;5.65;;;0.70;;
47053;SDS011;32811;52.382;5.270;2022-08-03T14:22:18;7.97;;;1.02;;
47053;SDS011;32811;52.382;5.270;2022-08-03T14:24:45;6.35;;;0.95;;
47053;SDS011;32811;52.382;5.270;2022-08-03T14:27:11;3.65;;;0.80;;
47053;SDS011;32811;52.382;5.270;2022-08-03T14:29:38;4.50;;;0.95;;
47053;SDS011;32811;52.382;5.270;2022-08-03T14:32:05;4.28;;;1.08;;
47053;SDS011;32811;52.382;5.270;2022-08-03T14:34:35;5.43;;;0.60;;
47053;SDS011;32811;52.382;5.270;2022-08-03T14:37:02;6.63;;;0.77;;
47053;SDS011;32811;52.382;5.270;2022-08-03T14:39:28;7.10;;;0.77;;
47053;SDS011;32811;52.382;5.270;2022-08-03T14:42:15;4.10;;;0.70;;
47053;SDS011;32811;52.382;5.270;2022-08-03T14:44:42;4.85;;;0.60;;
47053;SDS011;32811;52.382;5.270;2022-08-03T14:47:09;5.75;;;0.80;;
47053;SDS011;32811;52.382;5.270;2022-08-03T14:49:35;3.88;;;1.05;;
47053;SDS011;32811;52.382;5.270;2022-08-03T14:52:23;2.70;;;0.68;;
47053;SDS011;32811;52.382;5.270;2022-08-03T14:54:50;3.60;;;0.73;;
47053;SDS011;32811;52.382;5.270;2022-08-03T14:57:16;3.22;;;1.17;;
47053;SDS011;32811;52.382;5.270;2022-08-03T14:59:43;6.47;;;0.82;;
47053;SDS011;32811;52.382;5.270;2022-08-03T15:02:22;10.07;;;1.00;;
47053;SDS011;32811;52.382;5.270;2022-08-03T15:04:50;1.77;;;0.75;;
47053;SDS011;32811;52.382;5.270;2022-08-03T15:07:18;10.65;;;1.50;;
47053;SDS011;32811;52.382;5.270;2022-08-03T15:09:46;5.60;;;1.30;;
47053;SDS011;32811;52.382;5.270;2022-08-03T15:12:13;6.75;;;0.93;;
47053;SDS011;32811;52.382;5.270;2022-08-03T15:14:39;6.45;;;1.00;;
47053;SDS011;32811;52.382;5.270;2022-08-03T15:17:06;3.15;;;0.82;;
47053;SDS011;32811;52.382;5.270;2022-08-03T15:19:33;6.55;;;1.42;;
47053;SDS011;32811;52.382;5.270;2022-08-03T15:22:19;5.68;;;1.20;;
47053;SDS011;32811;52.382;5.270;2022-08-03T15:25:03;4.68;;;0.80;;
47053;SDS011;32811;52.382;5.270;2022-08-03T15:27:51;6.35;;;1.38;;
47053;SDS011;32811;52.382;5.270;2022-08-03T15:30:29;10.73;;;1.50;;
47053;SDS011;32811;52.382;5.270;2022-08-03T15:32:56;5.97;;;1.20;;
47053;SDS011;32811;52.382;5.270;2022-08-03T15:35:23;17.33;;;2.55;;
47053;SDS011;32811;52.382;5.270;2022-08-03T15:37:49;36.45;;;4.65;;
47053;SDS011;32811;52.382;5.270;2022-08-03T15:40:16;10.88;;;1.23;;
47053;SDS011;32811;52.382;5.270;2022-08-03T15:42:42;3.85;;;0.52;;
47053;SDS011;32811;52.382;5.270;2022-08-03T15:45:09;11.77;;;1.50;;
47053;SDS011;32811;52.382;5.270;2022-08-03T15:47:37;6.65;;;1.27;;